Collinston, Utah
Current Conditions -  °F | °C
As of 7:51 AM on Friday 19 Dec 2014 (Local Time) from KLGU Reporting Station
Overcast Overcast  
Wind Chill: 31°   Ceiling: 9500
Heat Index: 31°   Visibility: 10mi
Dew Point: 27°   Wind: 3mph
Humidity: 85%   Direction: 120°ESE
Pressure: 30.17"   Gusts: NA
Location:  41.79°N, 112.07°W
Report Text: KLGU 191451Z AUTO 12003KT 10SM OVC095 M01/M03 A3017 RMK AO2 SLP235 T10061028 50002
Loading
Personal Weather Stations






























Interactive Weather Map New forecast layout! Learn more

10-Day Weather Forecast

Advertisements
Track Severe Weather on mobile